Time;durP1;ratioP1;P1;durP2;ratioP2;P2;SDS_P1;SDS_P2;PMS_P1;PMS_P2;Temp;Humidity;BMP_temperature;BMP_pressure;BME280_temperature;BME280_humidity;BME280_pressure;Samples;Min_cycle;Max_cycle;Signal;HPM_P1;HPM_P2
2022/06/03 00:01:24;;;;;;;6.30;2.20;;;25.50;89.20;;;;;;5052631;28;20558;-80
2022/06/03 00:04:00;;;;;;;4.40;2.67;;;25.50;88.80;;;;;;5022933;28;20301;-78
2022/06/03 00:06:46;;;;;;;5.28;2.22;;;25.50;88.40;;;;;;5035505;28;20126;-78
2022/06/03 00:09:49;;;;;;;4.15;1.70;;;25.40;88.30;;;;;;5044057;28;20071;-79
2022/06/03 00:12:47;;;;;;;4.05;2.30;;;25.40;88.30;;;;;;5021508;28;20052;-79
2022/06/03 00:15:20;;;;;;;7.78;2.22;;;25.40;88.00;;;;;;5036347;28;20044;-78
2022/06/03 00:18:16;;;;;;;12.57;3.20;;;25.40;87.90;;;;;;5036152;28;20040;-79
2022/06/03 00:21:04;;;;;;;4.28;2.10;;;25.40;87.70;;;;;;5019993;28;20083;-76
2022/06/03 00:23:58;;;;;;;5.47;2.30;;;25.40;87.60;;;;;;5052604;28;20041;-76
2022/06/03 00:26:58;;;;;;;4.38;2.03;;;25.40;87.20;;;;;;5035692;28;20594;-79
2022/06/03 00:29:55;;;;;;;4.63;3.05;;;25.40;86.90;;;;;;5039917;28;20122;-79
2022/06/03 00:32:25;;;;;;;6.55;1.80;;;25.40;86.30;;;;;;5035648;28;20053;-79
2022/06/03 00:35:29;;;;;;;4.38;2.15;;;25.50;86.30;;;;;;5074033;28;20380;-79
2022/06/03 00:38:17;;;;;;;4.75;1.73;;;25.50;86.50;;;;;;5038924;28;20048;-76
2022/06/03 00:41:03;;;;;;;5.20;1.88;;;25.40;86.30;;;;;;5057406;28;20407;-78
2022/06/03 00:44:18;;;;;;;5.88;1.90;;;25.40;86.50;;;;;;5039358;28;20135;-77
2022/06/03 00:46:54;;;;;;;3.63;2.05;;;25.40;86.40;;;;;;5073990;28;20463;-76
2022/06/03 00:49:42;;;;;;;4.43;2.25;;;25.40;86.30;;;;;;5055632;28;20136;-77
2022/06/03 00:52:47;;;;;;;4.88;2.25;;;25.40;86.20;;;;;;5056211;28;20582;-80
2022/06/03 00:55:42;;;;;;;4.40;2.00;;;25.40;86.00;;;;;;5056185;28;20094;-76
2022/06/03 00:58:21;;;;;;;3.47;1.73;;;25.40;86.30;;;;;;5022924;28;20049;-78
2022/06/03 01:01:15;;;;;;;3.90;2.15;;;25.40;86.00;;;;;;5055723;28;20098;-77
2022/06/03 01:04:13;;;;;;;3.65;2.28;;;25.40;86.00;;;;;;5055718;28;20063;-77
2022/06/03 01:06:47;;;;;;;4.72;2.00;;;25.40;86.10;;;;;;5073458;28;20048;-75
2022/06/03 01:09:32;;;;;;;3.40;2.00;;;25.40;86.10;;;;;;5055738;28;20045;-76
2022/06/03 01:12:28;;;;;;;2.40;1.80;;;25.40;86.00;;;;;;5055600;28;20502;-76
2022/06/03 01:15:28;;;;;;;5.05;1.80;;;25.40;86.10;;;;;;5055768;28;20498;-76
2022/06/03 01:18:07;;;;;;;3.83;2.35;;;25.40;86.40;;;;;;5073164;28;20045;-76
2022/06/03 01:20:39;;;;;;;3.88;1.75;;;25.40;86.60;;;;;;5054962;28;20581;-80
2022/06/03 01:23:18;;;;;;;4.25;1.92;;;25.30;86.70;;;;;;5038633;28;20091;-78
2022/06/03 01:26:05;;;;;;;4.68;2.83;;;25.30;86.80;;;;;;5038713;28;20052;-78
2022/06/03 01:28:52;;;;;;;4.03;2.25;;;25.30;86.60;;;;;;5055404;28;20044;-78
2022/06/03 01:31:41;;;;;;;3.20;1.92;;;25.30;86.60;;;;;;5055359;28;20414;-78
2022/06/03 01:34:35;;;;;;;4.03;2.10;;;25.20;86.40;;;;;;5068772;28;20064;-78
2022/06/03 01:37:30;;;;;;;4.22;2.40;;;25.20;86.70;;;;;;5041929;28;20063;-78
2022/06/03 01:40:13;;;;;;;4.82;2.17;;;25.20;86.90;;;;;;5074356;28;20753;-81
2022/06/03 01:42:59;;;;;;;4.28;2.15;;;25.20;87.20;;;;;;5074083;28;20044;-81
2022/06/03 01:46:06;;;;;;;4.88;2.55;;;25.20;87.30;;;;;;5044926;28;20049;-79
2022/06/03 01:48:33;;;;;;;3.80;2.25;;;25.10;87.40;;;;;;5021947;28;20056;-79
2022/06/03 01:51:01;;;;;;;3.75;2.28;;;25.10;87.30;;;;;;5038558;28;20119;-78
2022/06/03 01:54:01;;;;;;;3.28;2.70;;;25.10;87.60;;;;;;5076539;28;20048;-78
2022/06/03 01:56:41;;;;;;;4.88;2.70;;;25.10;87.80;;;;;;5094752;28;20544;-78
2022/06/03 01:59:22;;;;;;;3.08;2.10;;;25.10;88.00;;;;;;5095230;28;20506;-78
2022/06/03 02:02:27;;;;;;;4.32;2.20;;;25.10;88.50;;;;;;5077654;28;20052;-79
2022/06/03 02:04:57;;;;;;;4.35;2.53;;;25.10;88.50;;;;;;5094644;28;20035;-78
2022/06/03 02:07:56;;;;;;;5.20;2.22;;;25.00;88.30;;;;;;5061519;28;20134;-78
2022/06/03 02:10:41;;;;;;;3.63;2.20;;;25.00;88.60;;;;;;5094512;28;20051;-78
2022/06/03 02:13:33;;;;;;;5.72;2.70;;;25.00;88.70;;;;;;5077983;28;20051;-79
2022/06/03 02:16:23;;;;;;;6.97;2.22;;;25.00;88.60;;;;;;5077988;28;20089;-78
2022/06/03 02:19:17;;;;;;;5.60;1.95;;;25.00;88.60;;;;;;5077966;28;20044;-79
2022/06/03 02:22:13;;;;;;;6.50;2.92;;;25.00;88.50;;;;;;5077255;28;20467;-78
2022/06/03 02:25:14;;;;;;;5.72;2.20;;;25.00;88.60;;;;;;5077486;28;20049;-78
2022/06/03 02:28:06;;;;;;;4.88;2.28;;;24.90;88.50;;;;;;5077206;28;20656;-78
2022/06/03 02:30:40;;;;;;;4.97;2.83;;;24.90;88.60;;;;;;5077344;28;20107;-79
2022/06/03 02:33:49;;;;;;;7.22;2.60;;;24.90;89.00;;;;;;5112224;28;20058;-78
2022/06/03 02:36:54;;;;;;;7.03;2.40;;;24.90;88.80;;;;;;5009537;28;20101;-76
2022/06/03 02:39:42;;;;;;;9.95;2.92;;;24.90;88.60;;;;;;5009789;28;20077;-78
2022/06/03 02:42:13;;;;;;;7.30;2.85;;;24.80;88.70;;;;;;5076401;28;20766;-83
2022/06/03 02:45:19;;;;;;;6.22;2.65;;;24.90;88.70;;;;;;5071564;28;20048;-78
2022/06/03 02:48:22;;;;;;;3.63;2.45;;;24.90;88.90;;;;;;5034888;28;20055;-78
2022/06/03 02:51:09;;;;;;;6.07;2.63;;;24.90;89.30;;;;;;5053583;28;20056;-78
2022/06/03 02:53:52;;;;;;;4.80;2.50;;;24.90;89.40;;;;;;5037092;28;20494;-78
2022/06/03 02:56:53;;;;;;;4.45;2.33;;;24.80;89.50;;;;;;5053345;28;20438;-77
2022/06/03 03:00:05;;;;;;;6.28;3.63;;;24.80;89.70;;;;;;5053642;28;20506;-78
2022/06/03 03:03:14;;;;;;;5.40;3.38;;;24.80;89.60;;;;;;5045476;28;20044;-77
2022/06/03 03:06:40;;;;;;;3.95;2.50;;;24.80;89.70;;;;;;4969881;28;20055;-78
2022/06/03 03:09:15;;;;;;;7.53;3.13;;;24.80;90.00;;;;;;4954210;28;20055;-79
2022/06/03 03:12:01;;;;;;;5.55;3.10;;;24.80;90.20;;;;;;4970270;28;20054;-77
2022/06/03 03:15:00;;;;;;;4.90;2.83;;;24.80;89.90;;;;;;5020882;28;20052;-77
2022/06/03 03:17:49;;;;;;;7.75;3.50;;;24.80;90.10;;;;;;5053136;28;20494;-78
2022/06/03 03:21:05;;;;;;;6.65;3.42;;;24.80;90.10;;;;;;5052900;28;20075;-78
2022/06/03 03:23:45;;;;;;;5.07;3.35;;;24.80;90.10;;;;;;5069132;28;20552;-78
2022/06/03 03:27:03;;;;;;;9.52;3.65;;;24.80;90.20;;;;;;5052827;28;20139;-78
2022/06/03 03:29:42;;;;;;;6.25;3.30;;;24.80;90.30;;;;;;4969640;28;20051;-79
2022/06/03 03:32:12;;;;;;;8.55;3.97;;;24.70;90.40;;;;;;4953129;28;20675;-78
2022/06/03 03:34:50;;;;;;;5.40;2.70;;;24.70;90.50;;;;;;5018910;28;20102;-78
2022/06/03 03:37:33;;;;;;;4.97;2.95;;;24.70;90.60;;;;;;5053911;28;20068;-78
2022/06/03 03:40:22;;;;;;;8.18;2.92;;;24.70;90.60;;;;;;5052942;28;20074;-79
2022/06/03 03:43:28;;;;;;;6.35;3.33;;;24.70;90.70;;;;;;5052909;28;20045;-78
2022/06/03 03:46:46;;;;;;;6.57;3.05;;;24.80;90.80;;;;;;5070423;28;20059;-78
2022/06/03 03:49:39;;;;;;;8.15;2.85;;;24.80;90.80;;;;;;5052887;28;20040;-77
2022/06/03 03:52:28;;;;;;;6.20;2.45;;;24.80;90.80;;;;;;5052641;28;20048;-77
2022/06/03 03:55:20;;;;;;;8.90;2.60;;;24.90;90.90;;;;;;5052427;28;20063;-77
2022/06/03 03:58:32;;;;;;;4.88;2.55;;;24.90;90.90;;;;;;5052898;28;20132;-78
2022/06/03 04:00:59;;;;;;;5.57;3.38;;;24.90;90.90;;;;;;5040007;28;20076;-78
2022/06/03 04:03:51;;;;;;;6.97;3.17;;;25.00;91.00;;;;;;5052081;28;20045;-77
2022/06/03 04:06:24;;;;;;;4.65;3.05;;;25.10;91.00;;;;;;5051912;28;20050;-78
2022/06/03 04:09:20;;;;;;;9.40;3.13;;;25.10;90.90;;;;;;5069139;28;20418;-79
2022/06/03 04:12:12;;;;;;;6.38;2.85;;;25.20;91.00;;;;;;5052220;28;20506;-78
2022/06/03 04:14:58;;;;;;;7.65;3.20;;;25.30;91.00;;;;;;5069003;28;20371;-78
2022/06/03 04:17:57;;;;;;;7.85;2.42;;;25.40;90.90;;;;;;5069907;28;20109;-78
2022/06/03 04:20:31;;;;;;;8.80;3.65;;;25.50;90.90;;;;;;5068619;28;20040;-78
2022/06/03 04:23:23;;;;;;;8.35;3.67;;;25.60;90.90;;;;;;5035576;28;20044;-78
2022/06/03 04:26:09;;;;;;;6.82;3.10;;;25.70;90.90;;;;;;5052429;28;20494;-77
2022/06/03 04:28:36;;;;;;;6.38;2.92;;;25.80;90.80;;;;;;5035558;28;20106;-79
2022/06/03 04:31:25;;;;;;;5.35;2.60;;;26.00;90.80;;;;;;5052481;28;20048;-77
2022/06/03 04:34:15;;;;;;;6.68;3.55;;;26.10;90.70;;;;;;5051653;28;20048;-78
2022/06/03 04:37:07;;;;;;;6.45;3.63;;;26.30;90.70;;;;;;5057037;28;20131;-77
2022/06/03 04:40:13;;;;;;;7.80;3.50;;;26.40;90.70;;;;;;5055655;28;20496;-77
2022/06/03 04:43:12;;;;;;;5.15;2.58;;;26.50;90.60;;;;;;5071998;28;20052;-77
2022/06/03 04:46:07;;;;;;;9.57;3.65;;;26.60;90.60;;;;;;5050331;28;20060;-78
2022/06/03 04:49:10;;;;;;;9.75;3.00;;;26.70;90.60;;;;;;5055823;28;20113;-77
2022/06/03 04:51:59;;;;;;;7.18;3.08;;;26.90;90.80;;;;;;5089890;28;20044;-79
2022/06/03 04:54:54;;;;;;;6.75;3.00;;;26.90;90.60;;;;;;5071935;28;20055;-77
2022/06/03 04:57:50;;;;;;;6.65;2.63;;;27.10;90.60;;;;;;5071553;28;20049;-78
2022/06/03 05:00:29;;;;;;;6.97;3.60;;;27.20;90.60;;;;;;5056111;28;20070;-77
2022/06/03 05:03:02;;;;;;;6.55;2.60;;;27.30;90.50;;;;;;5072160;28;20047;-78
2022/06/03 05:05:54;;;;;;;13.23;3.00;;;27.40;90.40;;;;;;5071651;28;20040;-77
2022/06/03 05:08:52;;;;;;;4.75;2.97;;;27.50;90.40;;;;;;5055013;28;20068;-77
2022/06/03 05:11:41;;;;;;;6.63;2.65;;;27.50;90.30;;;;;;5055923;28;20773;-77
2022/06/03 05:14:36;;;;;;;7.13;3.33;;;27.70;90.30;;;;;;5074601;28;20110;-78
2022/06/03 05:17:25;;;;;;;10.27;3.00;;;27.70;90.10;;;;;;5075511;28;20059;-78
2022/06/03 05:20:05;;;;;;;6.55;2.95;;;27.90;90.10;;;;;;5075523;28;20492;-78
2022/06/03 05:22:53;;;;;;;7.22;3.42;;;28.00;90.10;;;;;;5075125;28;20131;-80
2022/06/03 05:25:33;;;;;;;4.47;2.80;;;28.10;90.10;;;;;;5075136;28;20043;-80
2022/06/03 05:28:06;;;;;;;5.53;3.35;;;28.30;90.00;;;;;;5074683;28;20036;-78
2022/06/03 05:31:21;;;;;;;6.30;2.60;;;28.40;89.70;;;;;;5074331;28;20507;-77
2022/06/03 05:34:20;;;;;;;5.88;2.60;;;28.50;89.20;;;;;;5072640;28;21690;-78
2022/06/03 05:37:23;;;;;;;7.50;3.03;;;28.70;89.20;;;;;;5054857;28;20045;-77
2022/06/03 05:40:14;;;;;;;7.35;2.63;;;28.80;88.50;;;;;;5015359;28;20579;-78
2022/06/03 05:43:02;;;;;;;5.13;2.25;;;28.90;88.50;;;;;;5055099;28;20041;-78
2022/06/03 05:45:55;;;;;;;6.45;2.63;;;29.10;88.40;;;;;;5022080;28;20048;-78
2022/06/03 05:48:40;;;;;;;12.70;3.20;;;29.20;88.30;;;;;;5051981;28;20391;-75
2022/06/03 05:51:37;;;;;;;5.25;2.30;;;29.40;88.00;;;;;;5038574;28;20071;-76
2022/06/03 05:54:20;;;;;;;6.50;2.85;;;29.50;87.40;;;;;;5021575;28;20059;-77
2022/06/03 05:57:35;;;;;;;6.82;2.50;;;29.70;87.30;;;;;;5072689;28;20131;-76
2022/06/03 06:00:35;;;;;;;5.63;2.15;;;29.80;86.90;;;;;;4994286;28;20193;-76
2022/06/03 06:03:46;;;;;;;3.95;2.38;;;30.00;86.70;;;;;;5051163;28;20048;-76
2022/06/03 06:06:28;;;;;;;5.70;2.90;;;30.20;86.60;;;;;;5037828;28;20106;-76
2022/06/03 06:09:01;;;;;;;7.25;3.70;;;30.40;86.70;;;;;;5072078;28;20119;-76
2022/06/03 06:11:32;;;;;;;6.38;2.45;;;30.40;86.60;;;;;;5054767;28;20527;-77
2022/06/03 06:14:05;;;;;;;4.55;2.40;;;30.50;86.00;;;;;;5038090;28;20055;-75
2022/06/03 06:16:40;;;;;;;9.02;2.78;;;30.60;85.90;;;;;;5037645;28;20152;-77
2022/06/03 06:19:19;;;;;;;5.70;3.30;;;30.70;85.80;;;;;;5037523;28;20109;-76
2022/06/03 06:21:58;;;;;;;13.57;2.75;;;30.80;85.60;;;;;;5038034;28;20060;-77
2022/06/03 06:24:35;;;;;;;8.20;2.75;;;30.80;85.30;;;;;;5053121;28;20055;-77
2022/06/03 06:27:18;;;;;;;5.72;2.45;;;30.90;84.90;;;;;;5037696;28;20119;-77
2022/06/03 06:30:00;;;;;;;4.78;2.47;;;30.90;84.60;;;;;;5037578;28;20057;-77
2022/06/03 06:32:53;;;;;;;8.60;2.47;;;31.00;84.50;;;;;;5055365;28;20078;-76
2022/06/03 06:35:32;;;;;;;7.38;2.63;;;31.10;84.50;;;;;;5058027;28;20053;-76
2022/06/03 06:38:33;;;;;;;7.28;3.05;;;31.10;84.40;;;;;;5017869;28;20060;-78
2022/06/03 06:41:21;;;;;;;10.48;2.60;;;31.10;83.90;;;;;;5034085;28;20098;-76
2022/06/03 06:44:03;;;;;;;5.97;2.53;;;31.30;83.40;;;;;;5050803;28;20045;-76
2022/06/03 06:46:43;;;;;;;5.65;3.03;;;31.40;83.40;;;;;;5033490;28;20486;-77
2022/06/03 06:49:13;;;;;;;7.00;2.20;;;31.30;83.20;;;;;;5033979;28;20041;-76
2022/06/03 06:51:56;;;;;;;6.20;2.40;;;31.30;83.00;;;;;;5050377;28;20044;-76
2022/06/03 06:55:05;;;;;;;5.97;2.60;;;31.40;82.40;;;;;;5034052;28;20057;-77
2022/06/03 06:57:46;;;;;;;3.45;2.33;;;31.50;82.60;;;;;;5037806;28;20131;-76
2022/06/03 07:00:17;;;;;;;3.83;2.38;;;31.70;82.70;;;;;;5033396;28;20143;-76
2022/06/03 07:03:04;;;;;;;4.18;2.70;;;31.70;82.60;;;;;;5049898;28;20430;-76
2022/06/03 07:05:52;;;;;;;6.32;2.35;;;31.80;82.20;;;;;;5050061;28;20139;-76
2022/06/03 07:08:32;;;;;;;7.60;3.40;;;31.90;82.10;;;;;;5017029;28;20567;-78
2022/06/03 07:11:23;;;;;;;7.38;3.25;;;31.80;81.60;;;;;;5033268;28;20049;-76
2022/06/03 07:14:11;;;;;;;5.68;2.53;;;31.90;81.50;;;;;;5033321;28;20550;-76
2022/06/03 07:19:49;;;;;;;5.43;2.40;;;32.00;81.00;;;;;;5047375;28;20394;-77
2022/06/03 07:22:25;;;;;;;8.40;2.55;;;32.00;80.80;;;;;;5032218;28;20069;-77
2022/06/03 07:25:04;;;;;;;5.20;2.78;;;32.10;81.10;;;;;;5049369;28;20650;-76
2022/06/03 07:27:43;;;;;;;7.63;2.80;;;32.10;80.90;;;;;;5049702;28;20051;-77
2022/06/03 07:30:29;;;;;;;7.40;3.58;;;32.10;81.00;;;;;;5016605;28;20049;-79
2022/06/03 07:33:04;;;;;;;12.45;3.13;;;32.20;81.20;;;;;;5016465;28;20049;-76
2022/06/03 07:35:47;;;;;;;6.68;2.47;;;32.30;81.30;;;;;;5016358;28;20786;-76
2022/06/03 07:38:18;;;;;;;4.13;2.33;;;32.30;80.90;;;;;;5049262;28;20041;-78
2022/06/03 07:40:49;;;;;;;5.82;3.00;;;32.40;80.80;;;;;;5033064;28;20049;-77
2022/06/03 07:43:24;;;;;;;7.43;3.30;;;32.40;80.70;;;;;;5032256;28;20044;-76
2022/06/03 07:46:06;;;;;;;5.88;2.60;;;32.40;80.90;;;;;;5033172;28;20118;-76
2022/06/03 07:48:36;;;;;;;8.98;2.67;;;32.40;80.70;;;;;;5032957;28;20609;-77
2022/06/03 07:51:31;;;;;;;5.38;2.40;;;32.40;81.10;;;;;;5049405;28;20454;-77
2022/06/03 07:54:07;;;;;;;5.23;3.00;;;32.50;81.30;;;;;;5032719;28;20048;-77
2022/06/03 07:56:40;;;;;;;6.22;2.90;;;32.40;81.40;;;;;;5032622;28;20292;-77
2022/06/03 07:59:17;;;;;;;3.58;2.47;;;32.40;81.60;;;;;;5032511;28;20045;-78
2022/06/03 08:01:58;;;;;;;5.20;2.65;;;32.40;82.10;;;;;;5032261;28;20072;-77
2022/06/03 08:04:35;;;;;;;8.20;3.10;;;32.40;81.80;;;;;;5032785;28;20495;-78
2022/06/03 08:12:39;;;;;;;8.55;3.05;;;32.60;82.00;;;;;;5049102;28;20114;-78
2022/06/03 08:15:22;;;;;;;8.43;3.65;;;32.60;81.80;;;;;;5032430;28;20053;-77
2022/06/03 08:17:50;;;;;;;6.53;2.45;;;32.50;81.40;;;;;;5030422;28;20041;-79
2022/06/03 08:20:20;;;;;;;7.07;2.30;;;32.50;81.50;;;;;;5015960;28;20147;-76
2022/06/03 08:22:48;;;;;;;5.43;2.97;;;32.60;81.30;;;;;;5016301;28;20131;-77
2022/06/03 08:25:20;;;;;;;5.28;2.97;;;32.60;81.00;;;;;;5016211;28;20066;-78
2022/06/03 08:27:49;;;;;;;5.13;2.58;;;32.60;81.20;;;;;;5032258;28;20148;-77
2022/06/03 08:30:20;;;;;;;8.82;3.05;;;32.70;81.20;;;;;;5048268;28;20049;-76
2022/06/03 08:32:56;;;;;;;6.10;2.95;;;32.60;80.50;;;;;;5048668;28;20041;-77
2022/06/03 08:35:28;;;;;;;6.22;2.20;;;32.70;80.70;;;;;;5073657;28;20076;-77
2022/06/03 08:38:04;;;;;;;3.72;2.10;;;32.80;80.60;;;;;;5056228;28;20052;-77
2022/06/03 08:41:15;;;;;;;4.03;2.45;;;32.70;79.60;;;;;;5072290;28;20086;-77
2022/06/03 08:44:14;;;;;;;6.43;3.17;;;32.70;79.70;;;;;;5055244;28;20070;-77
2022/06/03 08:47:08;;;;;;;6.25;2.90;;;32.70;80.10;;;;;;5072371;28;20043;-77
2022/06/03 08:49:59;;;;;;;7.28;2.50;;;32.70;80.20;;;;;;5093338;28;20036;-79
2022/06/03 08:52:58;;;;;;;8.63;2.97;;;32.80;79.50;;;;;;5068239;28;20055;-78
2022/06/03 08:55:44;;;;;;;8.35;2.67;;;33.00;79.30;;;;;;5076112;28;20055;-78
2022/06/03 08:58:18;;;;;;;6.47;2.70;;;33.10;79.20;;;;;;5058795;28;20044;-78
2022/06/03 09:01:11;;;;;;;6.25;3.15;;;33.10;78.40;;;;;;5075772;28;20078;-77
2022/06/03 09:03:51;;;;;;;8.35;4.07;;;33.20;78.90;;;;;;5059098;28;20127;-77
2022/06/03 09:06:37;;;;;;;11.18;3.95;;;33.40;79.10;;;;;;5058414;28;20074;-78
2022/06/03 09:09:13;;;;;;;5.25;3.83;;;33.40;79.20;;;;;;5075685;28;20071;-78
2022/06/03 09:12:07;;;;;;;10.80;4.13;;;33.50;78.70;;;;;;5074923;28;20040;-79
2022/06/03 09:14:35;;;;;;;4.57;2.95;;;33.60;78.40;;;;;;5055391;28;20084;-78
2022/06/03 09:17:13;;;;;;;7.55;3.88;;;33.50;78.50;;;;;;5075486;28;20066;-78
2022/06/03 09:19:44;;;;;;;8.27;3.63;;;33.60;78.70;;;;;;5042513;28;20044;-78
2022/06/03 09:22:23;;;;;;;6.43;4.18;;;33.50;77.80;;;;;;5041823;28;20448;-77
2022/06/03 09:24:53;;;;;;;5.47;2.47;;;33.50;78.40;;;;;;5093432;28;20044;-77
2022/06/03 09:27:21;;;;;;;6.10;3.13;;;33.50;76.00;;;;;;5075202;28;20731;-78
2022/06/03 09:29:54;;;;;;;6.07;3.28;;;33.40;76.40;;;;;;5041778;28;20063;-77
2022/06/03 09:32:24;;;;;;;7.50;3.28;;;33.50;77.10;;;;;;5092774;28;20672;-78
2022/06/03 09:35:03;;;;;;;6.20;4.03;;;33.50;76.50;;;;;;5075147;28;20090;-77
2022/06/03 09:37:35;;;;;;;6.03;3.92;;;33.60;76.80;;;;;;5059161;28;20036;-71
2022/06/03 09:40:06;;;;;;;9.88;4.25;;;33.60;76.80;;;;;;5093323;28;20040;-72
2022/06/03 09:42:35;;;;;;;8.27;4.00;;;33.70;77.20;;;;;;5074840;28;20044;-74
2022/06/03 09:45:05;;;;;;;9.13;3.92;;;33.70;76.50;;;;;;5058003;28;20044;-71
2022/06/03 09:47:35;;;;;;;10.70;3.47;;;33.80;76.90;;;;;;5058398;28;20052;-73
2022/06/03 09:50:05;;;;;;;7.90;3.50;;;33.80;76.30;;;;;;5074494;28;20402;-70
2022/06/03 09:52:32;;;;;;;11.38;3.42;;;33.90;76.60;;;;;;5092693;28;20562;-72
2022/06/03 09:55:05;;;;;;;7.82;4.05;;;33.90;76.80;;;;;;5074492;28;20047;-72
2022/06/03 09:57:43;;;;;;;8.77;2.88;;;33.80;76.50;;;;;;5058431;28;20146;-71
2022/06/03 10:00:21;;;;;;;5.00;2.92;;;33.70;76.70;;;;;;5056743;28;20074;-75
2022/06/03 10:02:49;;;;;;;5.03;2.97;;;33.70;76.60;;;;;;5074349;28;20801;-71
2022/06/03 10:05:19;;;;;;;3.88;2.55;;;33.90;76.90;;;;;;5057485;28;20082;-72
2022/06/03 10:07:52;;;;;;;5.95;2.80;;;33.80;77.90;;;;;;5052455;28;20060;-73
2022/06/03 10:13:08;;;;;;;5.50;3.33;;;34.00;76.50;;;;;;5084770;28;20555;-73
2022/06/03 10:15:46;;;;;;;5.38;2.72;;;33.80;76.40;;;;;;5072745;28;20097;-72
2022/06/03 10:18:32;;;;;;;5.30;3.15;;;33.90;76.90;;;;;;5086055;28;20074;-71
2022/06/03 10:21:07;;;;;;;8.70;3.25;;;33.70;76.00;;;;;;5032633;28;20056;-72
2022/06/03 10:23:40;;;;;;;5.07;3.03;;;33.80;77.30;;;;;;5075989;28;20059;-71
2022/06/03 10:26:24;;;;;;;6.18;3.88;;;33.70;77.90;;;;;;5036270;28;20102;-71
2022/06/03 10:28:53;;;;;;;6.88;2.50;;;33.80;78.10;;;;;;5026057;28;20493;-72
2022/06/03 10:31:33;;;;;;;5.30;2.60;;;34.00;79.10;;;;;;5035805;28;20052;-72
2022/06/03 10:34:05;;;;;;;4.70;2.78;;;33.90;78.80;;;;;;5059715;28;20135;-72
2022/06/03 10:36:35;;;;;;;5.97;3.03;;;33.90;78.40;;;;;;5052596;28;20080;-73
2022/06/03 10:39:05;;;;;;;6.68;3.42;;;33.90;78.40;;;;;;5051423;28;20048;-72
2022/06/03 10:41:41;;;;;;;10.00;4.07;;;33.90;78.60;;;;;;5052531;28;20048;-72
2022/06/03 10:44:16;;;;;;;9.63;4.63;;;33.80;79.00;;;;;;5052759;28;20048;-72
2022/06/03 10:46:59;;;;;;;8.07;4.13;;;33.80;79.10;;;;;;5052616;28;20045;-76
2022/06/03 10:49:29;;;;;;;5.85;3.13;;;33.80;78.40;;;;;;5057263;28;20409;-76
2022/06/03 11:03:29;;;;;;;7.72;3.88;;;33.60;79.30;;;;;;5088811;28;20059;-72
2022/06/03 11:05:57;;;;;;;9.88;3.28;;;33.60;79.00;;;;;;5054860;28;20052;-80
2022/06/03 11:08:24;;;;;;;9.80;3.20;;;33.60;78.00;;;;;;5054202;28;20040;-72
2022/06/03 11:10:55;;;;;;;8.40;3.40;;;33.60;77.40;;;;;;5070975;28;20141;-74
2022/06/03 11:13:32;;;;;;;7.63;3.47;;;33.50;78.20;;;;;;5068458;28;20044;-72
2022/06/03 11:16:26;;;;;;;7.15;3.33;;;33.40;78.80;;;;;;5035402;28;20143;-72
2022/06/03 11:18:53;;;;;;;9.18;3.33;;;33.40;79.10;;;;;;5058007;28;20044;-71
2022/06/03 11:21:25;;;;;;;5.82;3.80;;;33.40;78.90;;;;;;5035583;28;20056;-74
2022/06/03 11:23:56;;;;;;;8.18;3.85;;;33.30;78.90;;;;;;5055265;28;20140;-75
2022/06/03 11:26:33;;;;;;;7.50;2.80;;;33.30;79.00;;;;;;5035277;28;20399;-74
2022/06/03 11:29:06;;;;;;;7.00;2.83;;;33.30;78.70;;;;;;5079640;28;20498;-72
2022/06/03 11:31:41;;;;;;;9.82;3.72;;;33.30;78.20;;;;;;5055728;28;20154;-72
2022/06/03 11:34:14;;;;;;;4.82;3.15;;;33.30;79.10;;;;;;5088292;28;20066;-73
2022/06/03 11:36:45;;;;;;;7.50;3.60;;;33.30;78.90;;;;;;5090115;28;20064;-74
2022/06/03 11:39:38;;;;;;;7.53;3.08;;;33.40;78.90;;;;;;5051219;28;20498;-73
2022/06/03 11:42:08;;;;;;;8.75;3.65;;;33.40;79.40;;;;;;5035020;28;20080;-72
2022/06/03 11:44:45;;;;;;;6.40;3.90;;;33.40;79.30;;;;;;5051535;28;20052;-72
2022/06/03 11:47:18;;;;;;;5.05;3.03;;;33.50;78.70;;;;;;5018262;28;20448;-72
2022/06/03 11:49:46;;;;;;;5.63;3.40;;;33.40;79.00;;;;;;5039670;28;20040;-74
2022/06/03 11:52:15;;;;;;;6.50;3.10;;;33.30;78.70;;;;;;5041682;28;20113;-73
2022/06/03 11:54:43;;;;;;;8.00;3.65;;;33.20;78.70;;;;;;5080812;28;20054;-75
2022/06/03 11:57:11;;;;;;;6.43;3.00;;;33.20;78.70;;;;;;5058062;28;20520;-75
2022/06/03 12:00:00;;;;;;;9.77;4.05;;;33.10;79.60;;;;;;5091118;28;20051;-71
2022/06/03 12:03:10;;;;;;;8.88;4.32;;;33.10;80.20;;;;;;5110052;28;20075;-73
2022/06/03 12:05:48;;;;;;;8.85;5.28;;;33.10;80.40;;;;;;5091879;28;20059;-71
2022/06/03 12:08:39;;;;;;;13.77;6.75;;;33.10;80.50;;;;;;5109334;28;20035;-72
2022/06/03 12:14:28;;;;;;;13.70;8.25;;;33.10;80.20;;;;;;5074602;28;20047;-72
2022/06/03 12:17:10;;;;;;;25.92;7.55;;;33.00;79.60;;;;;;5110245;28;20039;-75
2022/06/03 12:19:47;;;;;;;13.95;5.07;;;32.90;79.30;;;;;;5092079;28;20101;-72
2022/06/03 12:22:30;;;;;;;7.22;4.10;;;32.80;79.20;;;;;;5109644;28;20753;-73
2022/06/03 12:25:49;;;;;;;10.48;4.05;;;32.80;79.00;;;;;;5095599;28;20051;-72
2022/06/03 12:28:41;;;;;;;8.07;5.45;;;32.80;78.30;;;;;;5061105;28;20055;-73
2022/06/03 12:31:19;;;;;;;8.25;3.88;;;32.80;79.40;;;;;;5095791;28;20134;-75
2022/06/03 12:33:52;;;;;;;9.15;4.05;;;32.70;78.80;;;;;;5096035;28;20050;-73
2022/06/03 12:36:36;;;;;;;8.85;4.45;;;32.70;78.10;;;;;;5078760;28;20055;-73
2022/06/03 12:39:08;;;;;;;6.30;3.88;;;32.60;79.00;;;;;;5062544;28;20047;-73
2022/06/03 12:41:45;;;;;;;13.43;5.72;;;32.60;79.00;;;;;;5095646;28;20055;-75
2022/06/03 12:44:51;;;;;;;8.15;4.63;;;32.60;79.80;;;;;;5095479;28;20050;-73
2022/06/03 12:47:28;;;;;;;8.32;4.07;;;32.50;79.80;;;;;;5041639;28;20142;-73
2022/06/03 12:50:05;;;;;;;8.93;3.72;;;32.50;78.50;;;;;;5082450;28;20094;-73
2022/06/03 12:52:35;;;;;;;9.88;4.68;;;32.60;78.50;;;;;;5054697;28;20046;-70
2022/06/03 12:55:13;;;;;;;10.20;5.13;;;32.60;78.00;;;;;;5038025;28;20053;-71
2022/06/03 12:57:58;;;;;;;8.60;5.10;;;32.50;78.70;;;;;;5055245;28;20051;-75
2022/06/03 13:00:36;;;;;;;8.70;4.47;;;32.50;79.00;;;;;;5054608;28;20046;-75
2022/06/03 13:03:30;;;;;;;7.32;4.03;;;32.60;79.10;;;;;;5021678;28;20126;-73
2022/06/03 13:05:59;;;;;;;8.70;4.60;;;32.60;78.00;;;;;;5050538;28;20056;-71
2022/06/03 13:08:34;;;;;;;7.43;3.95;;;32.60;77.80;;;;;;5056275;28;20044;-73
2022/06/03 13:11:03;;;;;;;5.63;3.75;;;32.60;78.20;;;;;;5022234;28;20080;-74
2022/06/03 13:13:34;;;;;;;9.85;3.97;;;32.60;78.80;;;;;;5022352;28;20149;-71
2022/06/03 13:16:31;;;;;;;12.50;4.18;;;32.60;77.50;;;;;;5055550;28;20499;-72
2022/06/03 13:19:22;;;;;;;7.82;4.32;;;32.60;77.60;;;;;;5038855;28;20048;-72
2022/06/03 13:22:00;;;;;;;8.02;4.63;;;32.70;76.80;;;;;;5054791;28;20076;-71
2022/06/03 13:24:35;;;;;;;7.43;4.15;;;32.60;76.80;;;;;;5038350;28;20041;-72
2022/06/03 13:27:09;;;;;;;6.15;4.47;;;32.70;76.60;;;;;;5071403;28;20036;-73
2022/06/03 13:29:49;;;;;;;7.85;5.00;;;32.70;76.50;;;;;;5021830;28;20102;-74
2022/06/03 13:32:35;;;;;;;8.35;4.88;;;32.60;76.00;;;;;;5021842;28;20078;-73
2022/06/03 13:35:18;;;;;;;7.78;4.28;;;32.50;75.70;;;;;;5053537;28;20053;-73
2022/06/03 13:38:11;;;;;;;7.13;4.38;;;32.30;74.80;;;;;;5054309;28;20194;-78
2022/06/03 13:40:39;;;;;;;9.23;5.20;;;32.10;75.10;;;;;;5054677;28;20613;-72
2022/06/03 13:43:24;;;;;;;8.45;4.55;;;32.20;75.80;;;;;;5038360;28;20052;-72
2022/06/03 13:45:52;;;;;;;7.72;5.15;;;32.10;75.90;;;;;;5056021;28;20048;-72
2022/06/03 13:48:28;;;;;;;6.90;4.80;;;32.20;76.70;;;;;;5021364;28;20045;-72
2022/06/03 13:51:15;;;;;;;8.57;5.32;;;32.10;76.30;;;;;;5072516;28;20048;-71
2022/06/03 13:53:50;;;;;;;5.70;4.28;;;32.10;77.50;;;;;;5037976;28;20135;-72
2022/06/03 13:56:24;;;;;;;7.50;4.93;;;32.10;77.10;;;;;;5072309;28;20044;-71
2022/06/03 13:58:52;;;;;;;8.80;5.15;;;32.00;75.60;;;;;;5054643;28;21831;-73
2022/06/03 14:01:26;;;;;;;7.70;5.28;;;32.00;75.60;;;;;;5054569;28;20053;-73
2022/06/03 14:04:07;;;;;;;8.07;6.10;;;32.00;79.90;;;;;;5054471;28;20041;-72
2022/06/03 14:06:46;;;;;;;8.27;5.55;;;32.00;81.40;;;;;;5054426;28;20044;-72
2022/06/03 14:09:27;;;;;;;8.57;5.63;;;31.90;79.90;;;;;;5021455;28;20052;-71
2022/06/03 14:12:06;;;;;;;8.07;5.72;;;31.90;79.70;;;;;;5038067;28;20044;-72
2022/06/03 14:14:45;;;;;;;7.68;5.35;;;31.90;81.00;;;;;;5054697;28;20047;-73
2022/06/03 14:17:12;;;;;;;10.30;5.60;;;31.80;80.40;;;;;;5054593;28;20102;-75
2022/06/03 14:19:45;;;;;;;9.20;5.30;;;31.70;79.30;;;;;;5054511;28;20052;-73
2022/06/03 14:22:33;;;;;;;7.63;5.53;;;31.60;81.00;;;;;;5070628;28;20055;-73
2022/06/03 14:25:25;;;;;;;8.63;5.38;;;31.60;81.10;;;;;;5054400;28;20128;-71
2022/06/03 14:28:17;;;;;;;10.13;5.80;;;31.70;81.30;;;;;;5021445;28;20056;-71
2022/06/03 14:30:45;;;;;;;9.07;6.13;;;31.70;79.10;;;;;;5037013;28;20048;-74
2022/06/03 14:33:16;;;;;;;8.15;5.05;;;31.70;79.20;;;;;;5021119;28;20161;-72
2022/06/03 14:35:48;;;;;;;7.68;6.07;;;31.70;79.80;;;;;;5053729;28;20061;-72